createdAt,value
2018-11-29T00:00:55.948Z,24.50
2018-11-29T00:03:00.670Z,29.87
2018-11-29T00:05:04.668Z,31.73
2018-11-29T00:07:08.436Z,32.20
2018-11-29T00:09:12.174Z,35.00
2018-11-29T00:11:15.983Z,32.03
2018-11-29T00:13:19.706Z,30.63
2018-11-29T00:15:23.519Z,31.03
2018-11-29T00:17:27.299Z,29.40
2018-11-29T00:19:31.082Z,29.67
2018-11-29T00:21:34.801Z,28.43
2018-11-29T00:23:38.559Z,30.43
2018-11-29T00:25:42.331Z,31.53
2018-11-29T00:27:46.411Z,31.43
2018-11-29T00:29:50.202Z,28.80
2018-11-29T00:31:54.033Z,33.67
2018-11-29T00:33:57.787Z,28.73
2018-11-29T00:36:01.479Z,28.30
2018-11-29T00:38:05.289Z,28.27
2018-11-29T00:40:10.822Z,32.77
2018-11-29T00:42:14.552Z,30.87
2018-11-29T00:44:18.332Z,29.80
2018-11-29T00:46:22.052Z,28.10
2018-11-29T00:48:25.882Z,31.27
2018-11-29T00:50:29.642Z,27.30
2018-11-29T00:52:33.451Z,31.37
2018-11-29T00:54:37.261Z,28.23
2018-11-29T00:56:40.974Z,31.43
2018-11-29T00:58:44.704Z,27.87
2018-11-29T01:00:48.455Z,27.80
2018-11-29T01:02:52.319Z,25.83
2018-11-29T01:04:56.650Z,27.23
2018-11-29T01:07:00.470Z,27.30
2018-11-29T01:09:05.429Z,27.90
2018-11-29T01:11:09.220Z,24.90
2018-11-29T01:13:13.010Z,26.17
2018-11-29T01:15:21.844Z,32.13
2018-11-29T01:17:25.589Z,29.50
2018-11-29T01:19:29.352Z,29.10
2018-11-29T01:21:33.159Z,26.73
2018-11-29T01:23:36.942Z,29.40
2018-11-29T01:25:40.766Z,31.70
2018-11-29T01:27:45.650Z,29.00
2018-11-29T01:29:49.386Z,27.87
2018-11-29T01:31:54.690Z,29.47
2018-11-29T01:33:58.482Z,27.00
2018-11-29T01:36:02.301Z,30.83
2018-11-29T01:38:06.144Z,32.87
2018-11-29T01:40:15.714Z,31.50
2018-11-29T01:42:19.448Z,29.07
2018-11-29T01:44:23.191Z,30.23
2018-11-29T01:46:26.909Z,26.37
2018-11-29T01:48:31.449Z,30.93
2018-11-29T01:50:35.201Z,33.63
2018-11-29T01:52:38.984Z,33.57
2018-11-29T01:54:42.742Z,27.30
2018-11-29T01:56:46.535Z,32.17
2018-11-29T01:58:50.308Z,25.73
2018-11-29T02:00:54.122Z,30.70
2018-11-29T02:02:57.939Z,27.30
2018-11-29T02:05:01.727Z,27.00
2018-11-29T02:07:05.739Z,28.20
2018-11-29T02:09:09.958Z,27.60
2018-11-29T02:11:15.043Z,26.30
2018-11-29T02:13:19.848Z,25.90
2018-11-29T02:15:23.691Z,29.43
2018-11-29T02:17:27.483Z,27.60
2018-11-29T02:19:31.244Z,31.70
2018-11-29T02:21:35.092Z,26.83
2018-11-29T02:23:38.823Z,27.57
2018-11-29T02:25:42.594Z,27.17
2018-11-29T02:27:46.445Z,26.40
2018-11-29T02:29:50.218Z,28.00
2018-11-29T02:31:54.005Z,25.70
2018-11-29T02:33:57.777Z,21.77
2018-11-29T02:36:01.577Z,27.90
2018-11-29T02:38:05.383Z,26.30
2018-11-29T02:40:12.066Z,27.77
2018-11-29T02:42:15.906Z,27.07
2018-11-29T02:44:19.686Z,27.60
2018-11-29T02:46:23.493Z,26.50
2018-11-29T02:48:27.259Z,29.40
2018-11-29T02:50:31.036Z,27.70
2018-11-29T02:52:34.930Z,28.83
2018-11-29T02:54:38.622Z,25.00
2018-11-29T02:56:42.464Z,32.23
2018-11-29T02:58:46.204Z,24.67
2018-11-29T03:00:49.976Z,23.10
2018-11-29T03:02:53.752Z,23.03
2018-11-29T03:04:57.488Z,32.27
2018-11-29T03:07:01.353Z,32.03
2018-11-29T03:09:07.303Z,30.73
2018-11-29T03:11:11.067Z,33.00
2018-11-29T03:13:14.834Z,26.07
2018-11-29T03:15:18.594Z,29.10
2018-11-29T03:17:22.368Z,30.10
2018-11-29T03:19:26.436Z,32.30
2018-11-29T03:21:30.276Z,29.60
2018-11-29T03:23:34.148Z,31.93
2018-11-29T03:25:38.654Z,29.73
2018-11-29T03:27:42.568Z,33.90
2018-11-29T03:29:46.344Z,35.77
2018-11-29T03:31:50.095Z,29.77
2018-11-29T03:33:53.892Z,32.90
2018-11-29T03:35:57.874Z,29.73
2018-11-29T03:38:01.709Z,28.97
2018-11-29T03:40:08.069Z,27.90
2018-11-29T03:42:11.877Z,29.90
2018-11-29T03:44:15.621Z,29.60
2018-11-29T03:46:19.354Z,29.40
2018-11-29T03:48:23.240Z,28.50
2018-11-29T03:50:27.013Z,27.97
2018-11-29T03:52:30.808Z,35.53
2018-11-29T03:54:34.490Z,26.83
2018-11-29T03:56:38.278Z,27.03
2018-11-29T03:58:42.106Z,24.90
2018-11-29T04:00:45.853Z,27.23
2018-11-29T04:02:49.841Z,31.73
2018-11-29T04:04:53.638Z,28.67
2018-11-29T04:06:57.451Z,25.53
2018-11-29T04:09:01.246Z,26.80
2018-11-29T04:11:05.200Z,29.67
2018-11-29T04:13:09.037Z,25.17
2018-11-29T04:15:14.606Z,25.40
2018-11-29T04:17:18.417Z,29.80
2018-11-29T04:19:22.232Z,26.30
2018-11-29T04:21:26.020Z,23.13
2018-11-29T04:23:29.834Z,30.17
2018-11-29T04:25:34.344Z,27.40
2018-11-29T04:27:38.142Z,28.13
2018-11-29T04:29:41.914Z,25.93
2018-11-29T04:31:45.639Z,27.70
2018-11-29T04:33:49.493Z,26.97
2018-11-29T04:35:53.289Z,25.43
2018-11-29T04:37:57.153Z,26.83
2018-11-29T04:40:00.902Z,28.37
2018-11-29T04:42:04.815Z,25.50
2018-11-29T04:44:08.553Z,27.53
2018-11-29T04:47:15.708Z,27.77
2018-11-29T04:49:19.516Z,26.20
2018-11-29T04:51:23.280Z,26.47
2018-11-29T04:53:27.126Z,24.20
2018-11-29T04:55:32.030Z,28.23
2018-11-29T04:57:35.812Z,27.10
2018-11-29T04:59:39.638Z,25.90
2018-11-29T05:01:43.462Z,25.17
2018-11-29T05:03:47.207Z,25.00
2018-11-29T05:05:51.589Z,25.17
2018-11-29T05:07:55.440Z,25.50
2018-11-29T05:09:59.250Z,25.27
2018-11-29T05:12:03.077Z,28.03
2018-11-29T05:14:07.125Z,25.53
2018-11-29T05:16:10.883Z,24.50
2018-11-29T05:18:14.648Z,25.43
2018-11-29T05:20:18.561Z,26.70
2018-11-29T05:22:22.334Z,24.60
2018-11-29T05:24:26.138Z,27.73
2018-11-29T05:26:29.945Z,28.67
2018-11-29T05:28:33.739Z,26.70
2018-11-29T05:30:37.600Z,27.27
2018-11-29T05:32:41.447Z,27.00
2018-11-29T05:34:45.247Z,25.73
2018-11-29T05:36:49.110Z,29.30
2018-11-29T05:38:52.926Z,24.33
2018-11-29T05:40:56.795Z,23.57
2018-11-29T05:43:00.519Z,25.03
2018-11-29T05:45:05.002Z,23.47
2018-11-29T05:47:08.852Z,22.67
2018-11-29T05:49:12.887Z,25.90
2018-11-29T05:51:16.721Z,25.10
2018-11-29T05:53:20.455Z,24.80
2018-11-29T05:55:24.239Z,24.37
2018-11-29T05:57:28.015Z,22.90
2018-11-29T05:59:31.762Z,25.13
2018-11-29T06:01:38.090Z,24.30
2018-11-29T06:03:41.945Z,22.63
2018-11-29T06:05:46.343Z,21.33
2018-11-29T06:07:50.114Z,27.33
2018-11-29T06:09:53.876Z,29.13
2018-11-29T06:11:57.715Z,22.73
2018-11-29T06:14:01.559Z,24.33
2018-11-29T06:16:07.008Z,23.10
2018-11-29T06:18:10.821Z,20.07
2018-11-29T06:20:16.153Z,23.60
2018-11-29T06:22:20.029Z,23.03
2018-11-29T06:24:23.945Z,23.93
2018-11-29T06:26:27.749Z,24.80
2018-11-29T06:28:31.503Z,21.67
2018-11-29T06:30:35.368Z,25.10
2018-11-29T06:32:39.163Z,24.07
2018-11-29T06:34:42.997Z,23.50
2018-11-29T06:36:46.712Z,23.70
2018-11-29T06:38:50.576Z,29.53
2018-11-29T06:40:54.601Z,22.10
2018-11-29T06:42:58.564Z,25.87
2018-11-29T06:45:05.074Z,22.40
2018-11-29T06:47:09.181Z,25.60
2018-11-29T06:49:13.011Z,22.50
2018-11-29T06:51:16.855Z,25.80
2018-11-29T06:53:25.997Z,27.10
2018-11-29T06:55:29.872Z,24.57
2018-11-29T06:57:33.743Z,28.63
2018-11-29T06:59:37.666Z,29.10
2018-11-29T07:01:41.565Z,28.43
2018-11-29T07:03:45.365Z,26.10
2018-11-29T07:05:49.223Z,26.07
2018-11-29T07:07:53.051Z,24.37
2018-11-29T07:09:56.846Z,26.00
2018-11-29T07:12:00.689Z,25.40
2018-11-29T07:14:04.580Z,29.23
2018-11-29T07:16:08.368Z,25.70
2018-11-29T07:18:12.233Z,26.73
2018-11-29T07:20:16.864Z,26.20
2018-11-29T07:22:20.854Z,26.80
2018-11-29T07:24:25.293Z,22.03
2018-11-29T07:26:29.166Z,27.10
2018-11-29T07:28:33.166Z,33.10
2018-11-29T07:30:37.017Z,32.50
2018-11-29T07:32:40.871Z,26.50
2018-11-29T07:34:44.927Z,24.63
2018-11-29T07:36:49.084Z,28.27
2018-11-29T07:38:52.896Z,27.30
2018-11-29T07:40:56.831Z,25.20
2018-11-29T07:43:00.647Z,29.10
2018-11-29T07:45:05.062Z,25.67
2018-11-29T07:47:08.845Z,32.60
2018-11-29T07:49:12.648Z,28.97
2018-11-29T07:51:16.555Z,31.93
2018-11-29T07:53:20.307Z,30.57
2018-11-29T07:55:24.158Z,30.60
2018-11-29T07:57:27.961Z,33.97
2018-11-29T07:59:31.785Z,35.63
2018-11-29T08:01:35.565Z,40.80
2018-11-29T08:03:39.442Z,33.80
2018-11-29T08:05:43.258Z,31.93
2018-11-29T08:07:48.038Z,28.30
2018-11-29T08:09:51.856Z,28.03
2018-11-29T08:11:55.685Z,30.93
2018-11-29T08:13:59.471Z,28.83
2018-11-29T08:16:03.182Z,31.90
2018-11-29T08:18:07.483Z,41.17
2018-11-29T08:20:12.503Z,39.43
2018-11-29T08:22:16.642Z,31.73
2018-11-29T08:24:20.426Z,31.80
2018-11-29T08:26:24.185Z,26.33
2018-11-29T08:28:28.049Z,28.67
2018-11-29T08:30:32.029Z,31.57
2018-11-29T08:32:35.864Z,27.53
2018-11-29T08:34:39.749Z,26.27
2018-11-29T08:36:43.625Z,32.17
2018-11-29T08:38:47.447Z,29.33
2018-11-29T08:40:51.878Z,26.83
2018-11-29T08:42:55.690Z,26.40
2018-11-29T08:45:00.672Z,29.80
2018-11-29T08:47:05.576Z,27.93
2018-11-29T08:49:10.536Z,31.53
2018-11-29T08:51:15.026Z,27.03
2018-11-29T08:53:20.307Z,30.30
2018-11-29T08:55:29.308Z,30.90
2018-11-29T08:57:33.614Z,29.97
2018-11-29T08:59:42.774Z,29.10
2018-11-29T09:01:47.323Z,29.33
2018-11-29T09:03:52.064Z,26.87
2018-11-29T09:05:57.501Z,29.27
2018-11-29T09:08:03.800Z,26.03
2018-11-29T09:10:11.336Z,28.97
2018-11-29T09:12:17.585Z,26.43
2018-11-29T09:14:21.967Z,28.67
2018-11-29T09:16:27.826Z,29.53
2018-11-29T09:18:33.285Z,26.93
2018-11-29T09:20:38.055Z,30.97
2018-11-29T09:22:42.942Z,29.20
2018-11-29T09:24:47.434Z,27.33
2018-11-29T09:26:51.797Z,30.87
2018-11-29T09:28:56.212Z,34.40
2018-11-29T09:31:08.033Z,29.00
2018-11-29T09:33:12.743Z,29.10
2018-11-29T09:35:17.257Z,26.57
2018-11-29T09:37:23.244Z,27.90
2018-11-29T09:39:28.207Z,26.40
2018-11-29T09:41:32.624Z,31.10
2018-11-29T09:43:42.850Z,33.40
2018-11-29T09:45:48.709Z,29.33
2018-11-29T09:47:54.902Z,28.33
2018-11-29T09:49:59.221Z,29.10
2018-11-29T09:52:03.846Z,29.10
2018-11-29T09:54:08.528Z,27.27
2018-11-29T09:56:13.618Z,28.87
2018-11-29T09:58:23.884Z,30.23
2018-11-29T10:00:30.120Z,27.90
2018-11-29T10:02:35.526Z,24.47
2018-11-29T10:04:41.482Z,27.60
2018-11-29T10:06:48.090Z,30.40
2018-11-29T10:08:53.104Z,26.50
2018-11-29T10:10:59.980Z,27.13
2018-11-29T10:13:04.764Z,28.83
2018-11-29T10:15:11.263Z,26.90
2018-11-29T10:17:15.609Z,30.00
2018-11-29T10:19:21.151Z,28.47
2018-11-29T10:21:27.029Z,25.70
2018-11-29T10:23:32.516Z,30.60
2018-11-29T10:25:41.041Z,28.90
2018-11-29T10:27:50.305Z,30.30
2018-11-29T10:29:58.072Z,28.47
2018-11-29T10:32:03.815Z,29.90
2018-11-29T10:34:08.426Z,30.60
2018-11-29T10:36:12.866Z,33.13
2018-11-29T10:38:18.739Z,28.17
2018-11-29T10:40:23.162Z,31.23
2018-11-29T10:42:28.784Z,25.57
2018-11-29T10:44:33.096Z,26.93
2018-11-29T10:46:38.585Z,30.50
2018-11-29T10:48:44.178Z,24.83
2018-11-29T10:50:52.230Z,27.17
2018-11-29T10:52:56.650Z,27.73
2018-11-29T10:55:05.435Z,26.33
2018-11-29T10:57:10.750Z,26.77
2018-11-29T10:59:15.943Z,25.27
2018-11-29T11:01:25.531Z,28.93
2018-11-29T11:03:29.618Z,28.40
2018-11-29T11:05:36.681Z,28.30
2018-11-29T11:07:41.555Z,31.90
2018-11-29T11:09:45.401Z,28.97
2018-11-29T11:14:02.083Z,28.23
2018-11-29T11:16:06.750Z,34.33
2018-11-29T11:18:12.380Z,28.27
2018-11-29T11:20:16.451Z,25.30
2018-11-29T11:22:20.305Z,27.40
2018-11-29T11:24:25.863Z,26.07
2018-11-29T11:26:30.050Z,24.40
2018-11-29T11:28:34.597Z,20.80
2018-11-29T11:30:40.621Z,31.23
2018-11-29T11:32:45.704Z,25.90
2018-11-29T11:34:50.739Z,25.03
2018-11-29T11:36:55.504Z,26.93
2018-11-29T11:38:59.484Z,23.63
2018-11-29T11:41:03.558Z,28.43
2018-11-29T11:43:10.903Z,24.93
2018-11-29T11:45:20.272Z,27.83
2018-11-29T11:47:25.504Z,23.43
2018-11-29T11:49:34.763Z,27.53
2018-11-29T11:51:42.007Z,24.50
2018-11-29T11:53:52.570Z,27.93
2018-11-29T11:55:56.779Z,29.67
2018-11-29T11:58:02.438Z,32.40
2018-11-29T12:00:20.192Z,28.10
2018-11-29T12:02:29.380Z,25.60
2018-11-29T12:04:33.316Z,30.70
2018-11-29T12:06:37.638Z,30.77
2018-11-29T12:08:47.428Z,28.93
2018-11-29T12:10:52.541Z,27.93
2018-11-29T12:12:57.056Z,27.93
2018-11-29T12:15:01.446Z,26.07
2018-11-29T12:17:05.996Z,26.67
2018-11-29T12:19:11.799Z,29.33
2018-11-29T12:21:15.888Z,26.17
2018-11-29T12:23:27.666Z,27.10
2018-11-29T12:25:32.011Z,29.90
2018-11-29T12:27:42.598Z,26.97
2018-11-29T12:29:47.410Z,31.03
2018-11-29T12:31:56.009Z,26.03
2018-11-29T12:34:00.231Z,30.30
2018-11-29T12:36:05.269Z,24.67
2018-11-29T12:38:09.579Z,27.13
2018-11-29T12:40:15.360Z,27.67
2018-11-29T12:42:20.351Z,25.07
2018-11-29T12:44:24.249Z,25.80
2018-11-29T12:46:28.268Z,27.93
2018-11-29T12:48:32.197Z,21.50
2018-11-29T12:50:39.569Z,24.07
2018-11-29T12:52:44.220Z,22.37
2018-11-29T12:54:48.746Z,22.67
2018-11-29T12:56:52.776Z,27.13
2018-11-29T12:58:56.506Z,25.50
2018-11-29T13:01:00.864Z,24.43
2018-11-29T13:05:10.177Z,25.30
2018-11-29T13:07:14.094Z,24.80
2018-11-29T13:09:18.916Z,24.23
2018-11-29T13:11:23.564Z,22.77
2018-11-29T13:13:28.631Z,27.23
2018-11-29T13:15:33.933Z,29.87
2018-11-29T13:17:38.145Z,23.90
2018-11-29T13:19:42.616Z,37.27
2018-11-29T13:21:46.483Z,29.23
2018-11-29T13:23:53.584Z,30.60
2018-11-29T13:25:57.594Z,24.90
2018-11-29T13:28:02.170Z,24.00
2018-11-29T13:30:10.359Z,31.87
2018-11-29T13:32:15.011Z,29.93
2018-11-29T13:34:20.140Z,27.43
2018-11-29T13:36:26.714Z,23.83
2018-11-29T13:38:30.801Z,26.60
2018-11-29T13:40:36.540Z,29.77
2018-11-29T13:42:40.903Z,27.70
2018-11-29T13:44:52.216Z,26.07
2018-11-29T13:46:56.284Z,25.07
2018-11-29T13:49:00.783Z,25.00
2018-11-29T13:51:08.684Z,24.77
2018-11-29T13:53:14.451Z,34.93
2018-11-29T13:55:18.713Z,27.17
2018-11-29T13:57:26.206Z,22.87
2018-11-29T13:59:31.244Z,24.70
2018-11-29T14:01:35.227Z,21.13
2018-11-29T14:03:39.205Z,33.37
2018-11-29T14:05:43.055Z,27.50
2018-11-29T14:07:48.204Z,27.33
2018-11-29T14:09:53.240Z,26.97
2018-11-29T14:11:57.390Z,21.73
2018-11-29T14:14:02.157Z,25.50
2018-11-29T14:16:06.342Z,27.93
2018-11-29T14:18:10.307Z,24.07
2018-11-29T14:20:14.799Z,26.53
2018-11-29T14:22:18.898Z,23.60
2018-11-29T14:24:22.836Z,24.50
2018-11-29T14:26:26.759Z,24.90
2018-11-29T14:28:30.577Z,21.33
2018-11-29T14:30:34.455Z,19.07
2018-11-29T14:32:38.384Z,23.10
2018-11-29T14:34:42.970Z,20.57
2018-11-29T14:36:53.617Z,18.70
2018-11-29T14:38:57.583Z,23.90
2018-11-29T14:41:01.770Z,16.63
2018-11-29T14:43:06.373Z,21.97
2018-11-29T14:45:12.146Z,21.73
2018-11-29T14:47:16.881Z,20.07
2018-11-29T14:49:20.717Z,19.77
2018-11-29T14:51:24.604Z,24.83
2018-11-29T14:53:28.563Z,23.60
2018-11-29T14:55:33.642Z,21.47
2018-11-29T14:57:38.235Z,19.83
2018-11-29T14:59:43.006Z,21.00
2018-11-29T15:01:47.007Z,18.70
2018-11-29T15:03:50.894Z,19.27
2018-11-29T15:05:54.806Z,21.60
2018-11-29T15:08:01.315Z,19.03
2018-11-29T15:10:06.725Z,19.07
2018-11-29T15:12:10.687Z,24.73
2018-11-29T15:14:17.867Z,16.90
2018-11-29T15:16:18.737Z,20.27
2018-11-29T15:18:24.834Z,19.87
2018-11-29T15:20:38.963Z,16.60
2018-11-29T15:22:43.270Z,20.57
2018-11-29T15:24:47.122Z,18.30
2018-11-29T15:26:56.598Z,17.40
2018-11-29T15:29:00.436Z,31.03
2018-11-29T15:31:06.392Z,38.43
2018-11-29T15:33:10.299Z,23.50
2018-11-29T15:35:15.731Z,32.70
2018-11-29T15:37:19.659Z,22.87
2018-11-29T15:39:24.196Z,26.40
2018-11-29T15:41:28.067Z,30.93
2018-11-29T15:43:34.459Z,26.67
2018-11-29T15:45:38.701Z,29.53
2018-11-29T15:47:44.613Z,32.53
2018-11-29T15:49:48.405Z,27.00
2018-11-29T15:51:53.562Z,28.70
2018-11-29T15:53:57.456Z,30.03
2018-11-29T15:56:01.364Z,42.90
2018-11-29T15:58:05.806Z,23.93
2018-11-29T16:00:41.776Z,24.30
2018-11-29T16:02:47.152Z,30.33
2018-11-29T16:04:54.605Z,29.80
2018-11-29T16:06:59.808Z,28.50
2018-11-29T16:09:03.870Z,25.00
2018-11-29T16:11:07.767Z,24.83
2018-11-29T16:13:14.418Z,27.03
2018-11-29T16:15:20.074Z,24.77
2018-11-29T16:17:23.947Z,28.77
2018-11-29T16:19:27.852Z,24.93
2018-11-29T16:21:32.821Z,23.03
2018-11-29T16:23:36.672Z,21.83
2018-11-29T16:25:40.577Z,19.43
2018-11-29T16:27:44.616Z,22.97
2018-11-29T16:29:51.783Z,22.53
2018-11-29T16:31:55.741Z,22.73
2018-11-29T16:34:00.427Z,23.10
2018-11-29T16:36:04.430Z,22.30
2018-11-29T16:38:10.834Z,30.43
2018-11-29T16:40:14.650Z,23.00
2018-11-29T16:42:20.525Z,23.77
2018-11-29T16:44:24.332Z,19.97
2018-11-29T16:46:28.458Z,27.20
2018-11-29T16:48:32.386Z,27.97
2018-11-29T16:50:37.319Z,23.47
2018-11-29T16:52:41.864Z,26.07
2018-11-29T16:54:47.816Z,27.43
2018-11-29T16:56:52.494Z,23.60
2018-11-29T16:58:57.907Z,30.17
2018-11-29T17:01:08.648Z,23.83
2018-11-29T17:03:09.764Z,27.27
2018-11-29T17:05:14.781Z,23.90
2018-11-29T17:07:19.003Z,24.93
2018-11-29T17:09:24.313Z,23.73
2018-11-29T17:11:28.451Z,25.43
2018-11-29T17:13:34.459Z,28.03
2018-11-29T17:15:39.518Z,18.60
2018-11-29T17:17:43.678Z,21.07
2018-11-29T17:19:47.628Z,20.23
2018-11-29T17:21:53.379Z,16.80
2018-11-29T17:23:59.747Z,17.30
2018-11-29T17:26:03.895Z,20.87
2018-11-29T17:28:12.138Z,19.80
2018-11-29T17:32:32.447Z,23.80
2018-11-29T17:34:37.099Z,20.63
2018-11-29T17:36:41.226Z,24.80
2018-11-29T17:38:49.986Z,27.33
2018-11-29T17:40:54.414Z,26.67
2018-11-29T17:42:58.539Z,29.57
2018-11-29T17:45:04.100Z,26.33
2018-11-29T17:47:09.434Z,30.27
2018-11-29T17:49:13.961Z,26.00
2018-11-29T17:51:18.150Z,29.57
2018-11-29T17:53:26.750Z,30.30
2018-11-29T17:55:32.422Z,30.13
2018-11-29T17:57:37.236Z,26.40
2018-11-29T17:59:41.337Z,24.93
2018-11-29T18:01:46.693Z,24.50
2018-11-29T18:03:51.151Z,20.37
2018-11-29T18:06:03.172Z,21.10
2018-11-29T18:08:07.613Z,21.17
2018-11-29T18:10:14.667Z,27.03
2018-11-29T18:12:21.083Z,20.07
2018-11-29T18:14:29.451Z,22.53
2018-11-29T18:16:33.685Z,23.87
2018-11-29T18:18:38.329Z,23.40
2018-11-29T18:20:44.177Z,24.63
2018-11-29T18:22:48.757Z,21.87
2018-11-29T18:24:54.033Z,20.97
2018-11-29T18:26:58.080Z,20.33
2018-11-29T18:29:02.116Z,23.77
2018-11-29T18:31:08.315Z,21.93
2018-11-29T18:33:12.757Z,28.83
2018-11-29T18:35:17.350Z,22.93
2018-11-29T18:37:22.281Z,24.40
2018-11-29T18:41:40.505Z,23.37
2018-11-29T18:43:48.244Z,24.80
2018-11-29T18:45:57.294Z,19.30
2018-11-29T18:48:03.608Z,26.20
2018-11-29T18:50:15.005Z,23.40
2018-11-29T18:52:25.988Z,18.67
2018-11-29T18:54:31.017Z,19.07
2018-11-29T18:56:35.151Z,20.33
2018-11-29T18:58:40.398Z,22.57
2018-11-29T19:00:46.350Z,25.47
2018-11-29T19:02:50.661Z,32.47
2018-11-29T19:04:55.815Z,29.03
2018-11-29T19:07:05.466Z,26.73
2018-11-29T19:09:09.808Z,33.73
2018-11-29T19:11:13.675Z,26.83
2018-11-29T19:13:17.469Z,33.67
2018-11-29T19:15:21.660Z,36.00
2018-11-29T19:17:25.428Z,29.77
2018-11-29T19:19:29.187Z,32.27
2018-11-29T19:21:33.032Z,37.10
2018-11-29T19:23:36.799Z,36.87
2018-11-29T19:25:40.848Z,33.43
2018-11-29T19:27:44.753Z,34.90
2018-11-29T19:29:48.496Z,33.63
2018-11-29T19:31:52.381Z,31.80
2018-11-29T19:33:57.955Z,31.33
2018-11-29T19:36:00.323Z,31.33
2018-11-29T19:38:04.421Z,32.80
2018-11-29T19:40:10.952Z,39.00
2018-11-29T19:42:14.949Z,41.30
2018-11-29T19:44:18.658Z,37.90
2018-11-29T19:46:22.632Z,48.47
2018-11-29T19:48:26.465Z,47.47
2018-11-29T19:50:30.431Z,47.93
2018-11-29T19:52:34.340Z,47.67
2018-11-29T19:54:38.100Z,51.60
2018-11-29T19:56:41.860Z,55.33
2018-11-29T19:58:46.838Z,40.80
2018-11-29T20:00:50.651Z,43.27
2018-11-29T20:02:55.803Z,44.10
2018-11-29T20:04:59.587Z,43.33
2018-11-29T20:07:04.857Z,45.97
2018-11-29T20:09:08.953Z,42.70
2018-11-29T20:11:14.086Z,45.17
2018-11-29T20:13:18.226Z,45.70
2018-11-29T20:15:22.461Z,49.43
2018-11-29T20:17:26.943Z,44.07
2018-11-29T20:19:30.785Z,41.10
2018-11-29T20:21:34.908Z,48.00
2018-11-29T20:23:40.212Z,42.23
2018-11-29T20:25:45.215Z,41.17
2018-11-29T20:27:49.137Z,41.30
2018-11-29T20:29:53.003Z,41.80
2018-11-29T20:31:57.600Z,47.67
2018-11-29T20:34:01.379Z,40.10
2018-11-29T20:36:05.570Z,39.73
2018-11-29T20:38:09.390Z,40.43
2018-11-29T20:40:14.494Z,45.77
2018-11-29T20:42:18.368Z,47.00
2018-11-29T20:44:22.206Z,49.57
2018-11-29T20:46:25.971Z,55.67
2018-11-29T20:48:30.815Z,48.63
2018-11-29T20:50:35.744Z,59.90
2018-11-29T20:52:38.454Z,59.97
2018-11-29T20:54:43.117Z,91.70
2018-11-29T20:56:46.913Z,84.13
2018-11-29T20:58:51.057Z,103.93
2018-11-29T21:00:54.925Z,111.30
2018-11-29T21:02:59.098Z,110.87
2018-11-29T21:05:02.909Z,115.97
2018-11-29T21:07:06.933Z,112.80
2018-11-29T21:09:12.650Z,100.60
2018-11-29T21:11:16.441Z,98.37
2018-11-29T21:13:20.244Z,81.37
2018-11-29T21:15:24.128Z,74.80
2018-11-29T21:17:28.533Z,68.83
2018-11-29T21:19:32.829Z,80.47
2018-11-29T21:21:36.909Z,71.10
2018-11-29T21:23:40.724Z,67.83
2018-11-29T21:25:45.307Z,56.47
2018-11-29T21:27:49.151Z,52.60
2018-11-29T21:29:52.984Z,67.60
2018-11-29T21:31:57.134Z,61.03
2018-11-29T21:34:01.464Z,57.83
2018-11-29T21:36:05.247Z,47.27
2018-11-29T21:38:17.865Z,43.03
2018-11-29T21:40:28.002Z,50.27
2018-11-29T21:42:32.155Z,48.47
2018-11-29T21:44:36.627Z,51.40
2018-11-29T21:46:40.311Z,44.07
2018-11-29T21:48:44.081Z,41.50
2018-11-29T21:50:47.906Z,38.07
2018-11-29T21:52:51.698Z,39.63
2018-11-29T21:54:55.505Z,42.07
2018-11-29T21:56:59.290Z,40.67
2018-11-29T21:59:03.151Z,40.53
2018-11-29T22:01:07.058Z,42.33
2018-11-29T22:03:10.868Z,34.27
2018-11-29T22:05:14.751Z,39.87
2018-11-29T22:07:18.572Z,37.43
2018-11-29T22:09:23.311Z,40.10
2018-11-29T22:11:27.112Z,37.67
2018-11-29T22:13:31.303Z,37.40
2018-11-29T22:15:35.138Z,37.30
2018-11-29T22:17:43.063Z,44.23
2018-11-29T22:19:46.820Z,37.30
2018-11-29T22:21:51.054Z,39.30
2018-11-29T22:23:54.846Z,35.90
2018-11-29T22:26:00.305Z,41.40
2018-11-29T22:28:04.093Z,31.53
2018-11-29T22:30:08.886Z,32.63
2018-11-29T22:32:12.659Z,32.07
2018-11-29T22:34:16.512Z,29.53
2018-11-29T22:36:20.332Z,32.27
2018-11-29T22:38:24.099Z,30.37
2018-11-29T22:40:27.961Z,29.93
2018-11-29T22:42:31.709Z,27.30
2018-11-29T22:44:35.454Z,30.87
2018-11-29T22:46:39.238Z,34.37
2018-11-29T22:48:43.008Z,31.97
2018-11-29T22:50:46.776Z,33.13
2018-11-29T22:52:50.577Z,34.90
2018-11-29T22:54:54.333Z,31.63
2018-11-29T22:56:58.083Z,35.33
2018-11-29T22:59:01.896Z,35.10
2018-11-29T23:01:10.361Z,33.80
2018-11-29T23:03:14.141Z,36.40
2018-11-29T23:05:18.014Z,35.23
2018-11-29T23:07:21.820Z,29.10
2018-11-29T23:09:25.598Z,28.60
2018-11-29T23:11:29.410Z,28.80
2018-11-29T23:13:33.659Z,29.40
2018-11-29T23:15:38.386Z,31.13
2018-11-29T23:17:42.196Z,27.00
2018-11-29T23:19:45.990Z,25.53
2018-11-29T23:21:49.786Z,27.50
2018-11-29T23:23:53.611Z,25.77
2018-11-29T23:25:57.426Z,24.07
2018-11-29T23:28:01.650Z,27.43
2018-11-29T23:30:08.517Z,23.87
2018-11-29T23:32:12.269Z,26.67
2018-11-29T23:34:16.020Z,29.23
2018-11-29T23:36:19.849Z,31.70
2018-11-29T23:38:23.549Z,27.23
2018-11-29T23:40:27.333Z,22.80
2018-11-29T23:42:31.157Z,29.47
2018-11-29T23:44:34.994Z,29.00
2018-11-29T23:46:38.796Z,37.90
2018-11-29T23:48:42.555Z,30.27
2018-11-29T23:50:46.417Z,29.17
2018-11-29T23:52:50.205Z,29.00
2018-11-29T23:54:53.993Z,27.73
2018-11-29T23:56:57.775Z,22.73
2018-11-29T23:59:03.964Z,28.20
